Aérodrome :
LOGIN :

S'inscrire | Disclaimer

   EN    FR    IT 

 










Légende :    VFR   VFR Marginal   IFR   IFR Intensif   IFR Très Intensif
Visi : 
Plafond : 
>= 8 km
>= 3000ft
5 à 8 km
1000 à 3000 ft
1500m à 5 km
500 à 1000 ft
800 à 1500m
200 à 500 ft
< 800m
< 200 ft
Symboles :   Orages  Brouillard  Fortes neiges  Fortes précipitations  Vent > 20 kt
SIGMETs :   Divers  Orages  Givrage  Turbulence  Onde Orograph.  Cendres Volcan.







- Altitude de l'aérodrome : 598 ft
- Code IATA : BQH
- Voir les cartes d'approche


EGKB - Biggin Hill

DERNIER METAR :
  • 120750Z 13006KT 9000 3000SE -DZ SCT007 SCT026 05/05 Q1022

METARs EXPIRÉS :
  • 120720Z 13007KT 9000 3000SE -DZ FEW005 SCT020 06/05 Q1022
  • 120650Z 11008KT 8000 -DZ FEW005 SCT020 06/05 Q1022
  • 120620Z 11007KT 080V140 8000 -DZ SCT006 SCT025 06/05 Q1022

TAF TAF EGKB
Valide du 12 à 06h jusqu'au 12 à 15h UTC


120656Z 1206/1215 11009KT 9999 BKN030
TEMPO 1206/1208 6000 -DZ BKN008
Pas de NOTAMs connus pour ce terrain.



MET'MAP, la Météo Aéronautique d'un coup d'oeil ! - Copyright ORBIFLY Décembre 2007 - Disclaimer

ORBIFLY MET'MAP TEAM :

Programmation & Développement : Alexandra Zaïnal
Conception & Développement : Baudouin d'Aumeries
Co-Programmation & Développement : Marc-Olivier Méhu
Soutien technique & logistique : Manuel Goepfert

Contact : metmap@orbifly.com




SOURCES & CREDITS :

   NOAA